createdAt,value
2019-05-30T00:00:16.831Z,7.70
2019-05-30T00:02:40.107Z,7.70
2019-05-30T00:05:09.696Z,7.70
2019-05-30T00:07:38.110Z,7.70
2019-05-30T00:10:07.286Z,7.70
2019-05-30T00:12:35.821Z,7.70
2019-05-30T00:15:08.683Z,7.70
2019-05-30T00:17:37.267Z,7.70
2019-05-30T00:20:06.322Z,7.70
2019-05-30T00:22:35.194Z,7.60
2019-05-30T00:25:07.258Z,7.70
2019-05-30T00:27:35.712Z,7.60
2019-05-30T00:30:20.012Z,7.60
2019-05-30T00:32:36.275Z,7.60
2019-05-30T00:35:06.530Z,7.60
2019-05-30T00:37:34.981Z,7.60
2019-05-30T00:40:06.168Z,7.60
2019-05-30T00:42:34.976Z,7.60
2019-05-30T00:45:19.638Z,7.50
2019-05-30T00:47:34.122Z,7.50
2019-05-30T00:50:02.834Z,7.50
2019-05-30T00:52:31.268Z,7.50
2019-05-30T00:55:00.632Z,7.50
2019-05-30T00:57:29.256Z,7.50
2019-05-30T00:59:58.759Z,7.40
2019-05-30T01:02:27.292Z,7.40
2019-05-30T01:04:56.905Z,7.40
2019-05-30T01:07:25.455Z,7.40
2019-05-30T01:09:53.899Z,7.30
2019-05-30T01:12:22.352Z,7.30
2019-05-30T01:14:50.805Z,7.30
2019-05-30T01:17:19.245Z,7.30
2019-05-30T01:19:47.915Z,7.40
2019-05-30T01:22:16.360Z,7.30
2019-05-30T01:24:44.788Z,7.40
2019-05-30T01:27:13.241Z,7.30
2019-05-30T01:29:41.657Z,7.30
2019-05-30T01:32:17.309Z,7.30
2019-05-30T01:34:45.858Z,7.30
2019-05-30T01:37:14.288Z,7.30
2019-05-30T01:39:42.748Z,7.30
2019-05-30T01:42:11.176Z,7.30
2019-05-30T01:44:39.621Z,7.30
2019-05-30T01:47:08.397Z,7.20
2019-05-30T01:49:36.876Z,7.30
2019-05-30T01:52:06.616Z,7.20
2019-05-30T01:54:35.152Z,7.20
2019-05-30T01:57:04.675Z,7.20
2019-05-30T01:59:33.173Z,7.20
2019-05-30T02:02:02.902Z,7.20
2019-05-30T02:04:31.391Z,7.20
2019-05-30T02:07:00.996Z,7.20
2019-05-30T02:09:29.428Z,7.20
2019-05-30T02:11:59.221Z,7.20
2019-05-30T02:14:27.789Z,7.20
2019-05-30T02:16:56.257Z,7.20
2019-05-30T02:19:24.670Z,7.20
2019-05-30T02:21:53.098Z,7.20
2019-05-30T02:24:21.764Z,7.20
2019-05-30T02:26:50.192Z,7.20
2019-05-30T02:29:18.681Z,7.30
2019-05-30T02:31:47.173Z,7.20
2019-05-30T02:34:15.561Z,7.30
2019-05-30T02:36:43.987Z,7.30
2019-05-30T02:39:12.435Z,7.30
2019-05-30T02:41:40.974Z,7.30
2019-05-30T02:44:10.292Z,7.30
2019-05-30T02:46:39.507Z,7.30
2019-05-30T02:49:10.846Z,7.40
2019-05-30T02:51:38.124Z,7.30
2019-05-30T02:54:08.694Z,7.30
2019-05-30T02:56:36.679Z,7.30
2019-05-30T02:59:06.239Z,7.30
2019-05-30T03:01:35.305Z,7.40
2019-05-30T03:04:04.609Z,7.40
2019-05-30T03:06:34.048Z,7.40
2019-05-30T03:09:03.826Z,7.40
2019-05-30T03:11:32.493Z,7.40
2019-05-30T03:14:02.214Z,7.40
2019-05-30T03:16:31.203Z,7.50
2019-05-30T03:18:59.865Z,7.60
2019-05-30T03:21:28.274Z,7.60
2019-05-30T03:23:56.745Z,7.70
2019-05-30T03:26:25.253Z,7.80
2019-05-30T03:28:53.769Z,7.90
2019-05-30T03:31:29.310Z,8.00
2019-05-30T03:33:54.013Z,8.00
2019-05-30T03:36:29.651Z,8.10
2019-05-30T03:38:52.631Z,8.20
2019-05-30T03:41:21.209Z,8.30
2019-05-30T03:43:49.611Z,8.40
2019-05-30T03:46:21.091Z,8.50
2019-05-30T03:48:52.589Z,8.60
2019-05-30T03:51:21.844Z,8.70
2019-05-30T03:53:50.854Z,8.80
2019-05-30T03:56:34.288Z,8.90
2019-05-30T03:59:10.271Z,9.00
2019-05-30T04:01:50.623Z,9.10
2019-05-30T04:04:27.652Z,9.20
2019-05-30T04:06:59.129Z,9.20
2019-05-30T04:09:29.929Z,9.30
2019-05-30T04:12:20.874Z,9.40
2019-05-30T04:14:52.357Z,9.50
2019-05-30T04:17:20.777Z,9.60
2019-05-30T04:19:49.269Z,9.70
2019-05-30T04:22:19.166Z,9.80
2019-05-30T04:24:48.382Z,9.90
2019-05-30T04:27:18.538Z,9.90
2019-05-30T04:29:46.930Z,10.00
2019-05-30T04:32:16.483Z,10.00
2019-05-30T04:34:45.071Z,10.10
2019-05-30T04:37:14.864Z,10.20
2019-05-30T04:39:43.453Z,10.20
2019-05-30T04:42:13.623Z,10.30
2019-05-30T04:44:42.012Z,10.30
2019-05-30T04:47:11.956Z,10.40
2019-05-30T04:49:40.564Z,10.50
2019-05-30T04:52:13.953Z,10.60
2019-05-30T04:54:39.104Z,10.60
2019-05-30T04:57:07.519Z,10.70
2019-05-30T04:59:35.949Z,10.80
2019-05-30T05:02:04.353Z,10.80
2019-05-30T05:04:32.793Z,10.90
2019-05-30T05:07:01.243Z,10.90
2019-05-30T05:09:29.669Z,11.00
2019-05-30T05:11:58.082Z,11.10
2019-05-30T05:14:26.521Z,11.20
2019-05-30T05:16:55.009Z,11.20
2019-05-30T05:19:26.229Z,11.20
2019-05-30T05:21:53.676Z,11.30
2019-05-30T05:24:22.097Z,11.30
2019-05-30T05:26:50.545Z,11.40
2019-05-30T05:29:19.885Z,11.40
2019-05-30T05:31:48.343Z,11.40
2019-05-30T05:34:16.869Z,11.50
2019-05-30T05:36:45.303Z,11.50
2019-05-30T05:39:13.779Z,11.60
2019-05-30T05:41:42.182Z,11.70
2019-05-30T05:44:10.624Z,11.70
2019-05-30T05:46:39.048Z,11.80
2019-05-30T05:49:07.445Z,11.90
2019-05-30T05:51:35.885Z,12.00
2019-05-30T05:54:04.449Z,12.00
2019-05-30T05:56:32.868Z,12.10
2019-05-30T05:59:01.275Z,12.10
2019-05-30T06:01:30.216Z,12.20
2019-05-30T06:04:12.054Z,12.30
2019-05-30T06:06:31.542Z,12.30
2019-05-30T06:08:59.023Z,12.40
2019-05-30T06:11:27.486Z,12.50
2019-05-30T06:13:55.924Z,12.50
2019-05-30T06:16:24.332Z,12.60
2019-05-30T06:18:52.767Z,12.60
2019-05-30T06:21:21.306Z,12.70
2019-05-30T06:23:49.765Z,12.80
2019-05-30T06:26:18.183Z,12.90
2019-05-30T06:28:46.709Z,12.90
2019-05-30T06:31:15.110Z,13.00
2019-05-30T06:33:43.625Z,13.10
2019-05-30T06:36:12.021Z,13.10
2019-05-30T06:38:40.457Z,13.20
2019-05-30T06:41:08.884Z,13.20
2019-05-30T06:43:37.301Z,13.20
2019-05-30T06:46:05.793Z,13.30
2019-05-30T06:48:34.209Z,13.30
2019-05-30T06:51:02.632Z,13.40
2019-05-30T06:53:31.434Z,13.40
2019-05-30T06:55:59.968Z,13.40
2019-05-30T06:58:41.407Z,13.50
2019-05-30T07:00:58.506Z,13.60
2019-05-30T07:03:28.329Z,13.60
2019-05-30T07:05:57.384Z,13.70
2019-05-30T07:08:26.763Z,13.80
2019-05-30T07:10:55.212Z,13.80
2019-05-30T07:13:24.959Z,13.80
2019-05-30T07:15:53.693Z,13.90
2019-05-30T07:18:23.364Z,13.90
2019-05-30T07:20:51.848Z,13.90
2019-05-30T07:23:20.288Z,13.90
2019-05-30T07:25:48.689Z,14.00
2019-05-30T07:28:17.111Z,14.10
2019-05-30T07:30:45.548Z,14.10
2019-05-30T07:33:13.953Z,14.20
2019-05-30T07:35:42.386Z,14.30
2019-05-30T07:38:10.828Z,14.40
2019-05-30T07:40:39.229Z,14.40
2019-05-30T07:43:07.669Z,14.50
2019-05-30T07:45:36.069Z,14.50
2019-05-30T07:48:04.940Z,14.70
2019-05-30T07:50:34.533Z,14.80
2019-05-30T07:53:03.192Z,14.90
2019-05-30T07:55:31.614Z,15.00
2019-05-30T07:58:00.042Z,15.10
2019-05-30T08:00:29.325Z,15.10
2019-05-30T08:02:57.776Z,15.20
2019-05-30T08:05:28.644Z,15.20
2019-05-30T08:07:57.193Z,15.20
2019-05-30T08:10:25.758Z,15.30
2019-05-30T08:12:54.169Z,15.30
2019-05-30T08:15:22.778Z,15.30
2019-05-30T08:17:52.384Z,15.40
2019-05-30T08:20:20.941Z,15.50
2019-05-30T08:22:49.380Z,15.60
2019-05-30T08:25:17.959Z,15.70
2019-05-30T08:27:46.368Z,15.80
2019-05-30T08:30:15.233Z,15.90
2019-05-30T08:32:43.664Z,15.90
2019-05-30T08:35:13.049Z,16.00
2019-05-30T08:37:41.540Z,16.10
2019-05-30T08:40:11.961Z,16.10
2019-05-30T08:42:40.636Z,16.20
2019-05-30T08:45:10.663Z,16.10
2019-05-30T08:47:40.620Z,16.10
2019-05-30T08:50:09.671Z,16.10
2019-05-30T08:52:38.647Z,16.10
2019-05-30T08:55:08.181Z,16.00
2019-05-30T08:57:36.757Z,16.00
2019-05-30T09:00:09.309Z,16.00
2019-05-30T09:02:38.836Z,16.00
2019-05-30T09:05:07.681Z,15.90
2019-05-30T09:07:36.470Z,15.80
2019-05-30T09:10:09.464Z,15.80
2019-05-30T09:12:40.016Z,15.70
2019-05-30T09:15:12.264Z,15.60
2019-05-30T09:17:42.470Z,15.60
2019-05-30T09:20:12.153Z,15.40
2019-05-30T09:22:41.839Z,15.20
2019-05-30T09:25:12.077Z,15.10
2019-05-30T09:27:41.444Z,15.00
2019-05-30T09:30:13.170Z,15.00
2019-05-30T09:32:43.245Z,14.90
2019-05-30T09:35:13.099Z,14.90
2019-05-30T09:37:42.393Z,14.90
2019-05-30T09:40:12.677Z,14.90
2019-05-30T09:42:42.701Z,14.80
2019-05-30T09:45:11.625Z,14.80
2019-05-30T09:47:41.297Z,14.70
2019-05-30T09:50:10.713Z,14.70
2019-05-30T09:52:39.149Z,14.70
2019-05-30T09:55:08.730Z,14.70
2019-05-30T09:57:37.188Z,14.60
2019-05-30T10:00:11.077Z,14.60
2019-05-30T10:02:39.503Z,14.60
2019-05-30T10:05:08.256Z,14.70
2019-05-30T10:07:36.658Z,14.70
2019-05-30T10:10:06.731Z,14.80
2019-05-30T10:12:35.396Z,14.80
2019-05-30T10:15:11.045Z,14.90
2019-05-30T10:17:39.476Z,14.90
2019-05-30T10:20:08.235Z,15.00
2019-05-30T10:22:36.669Z,15.00
2019-05-30T10:25:06.908Z,15.00
2019-05-30T10:27:35.325Z,15.00
2019-05-30T10:30:06.872Z,15.00
2019-05-30T10:32:35.313Z,15.00
2019-05-30T10:35:04.253Z,15.00
2019-05-30T10:37:32.664Z,15.00
2019-05-30T10:40:01.089Z,15.00
2019-05-30T10:42:29.492Z,15.00
2019-05-30T10:44:58.003Z,14.90
2019-05-30T10:47:26.658Z,15.00
2019-05-30T10:49:55.133Z,15.00
2019-05-30T10:52:23.559Z,15.00
2019-05-30T10:54:52.103Z,14.90
2019-05-30T10:57:20.513Z,15.00
2019-05-30T10:59:50.734Z,15.00
2019-05-30T11:02:19.268Z,15.00
2019-05-30T11:04:48.873Z,15.10
2019-05-30T11:07:20.652Z,15.10
2019-05-30T11:09:52.840Z,15.20
2019-05-30T11:12:21.545Z,15.20
2019-05-30T11:14:51.411Z,15.30
2019-05-30T11:17:19.969Z,15.30
2019-05-30T11:19:49.865Z,15.40
2019-05-30T11:22:18.425Z,15.40
2019-05-30T11:24:47.951Z,15.50
2019-05-30T11:27:16.660Z,15.50
2019-05-30T11:29:45.050Z,15.60
2019-05-30T11:32:13.476Z,15.70
2019-05-30T11:34:42.145Z,15.80
2019-05-30T11:37:18.773Z,15.80
2019-05-30T11:39:40.791Z,15.90
2019-05-30T11:42:09.208Z,16.10
2019-05-30T11:44:37.623Z,16.20
2019-05-30T11:47:06.048Z,16.30
2019-05-30T11:49:34.458Z,16.40
2019-05-30T11:52:02.880Z,16.60
2019-05-30T11:54:31.413Z,16.70
2019-05-30T11:57:00.299Z,16.90
2019-05-30T11:59:28.820Z,17.00
2019-05-30T12:01:58.383Z,17.10
2019-05-30T12:04:26.985Z,17.10
2019-05-30T12:06:56.751Z,17.20
2019-05-30T12:09:25.346Z,17.30
2019-05-30T12:11:55.083Z,17.30
2019-05-30T12:14:23.639Z,17.30
2019-05-30T12:16:53.105Z,17.40
2019-05-30T12:19:21.663Z,17.40
2019-05-30T12:21:51.310Z,17.40
2019-05-30T12:24:19.957Z,17.40
2019-05-30T12:29:37.133Z,17.30
2019-05-30T12:32:05.688Z,17.30
2019-05-30T12:34:34.164Z,17.30
2019-05-30T12:37:11.465Z,17.30
2019-05-30T12:39:39.992Z,17.20
2019-05-30T12:42:08.882Z,17.10
2019-05-30T12:44:37.384Z,17.00
2019-05-30T12:47:05.801Z,16.90
2019-05-30T12:49:34.213Z,16.70
2019-05-30T12:52:03.207Z,16.60
2019-05-30T12:54:31.750Z,16.50
2019-05-30T12:57:00.650Z,16.40
2019-05-30T12:59:29.188Z,16.40
2019-05-30T13:01:58.858Z,16.30
2019-05-30T13:04:27.388Z,16.30
2019-05-30T13:06:56.479Z,16.30
2019-05-30T13:09:26.045Z,16.40
2019-05-30T13:11:54.455Z,16.40
2019-05-30T13:14:22.889Z,16.50
2019-05-30T13:16:51.325Z,16.50
2019-05-30T13:19:19.989Z,16.60
2019-05-30T13:21:48.421Z,16.70
2019-05-30T13:24:16.832Z,16.80
2019-05-30T13:26:45.286Z,16.80
2019-05-30T13:29:13.708Z,16.80
2019-05-30T13:31:42.359Z,16.80
2019-05-30T13:34:11.053Z,16.80
2019-05-30T13:36:39.655Z,16.80
2019-05-30T13:39:08.286Z,16.90
2019-05-30T13:41:36.728Z,16.90
2019-05-30T13:44:08.006Z,17.00
2019-05-30T13:46:35.419Z,17.00
2019-05-30T13:49:04.769Z,17.10
2019-05-30T13:51:33.302Z,17.10
2019-05-30T13:54:03.004Z,17.10
2019-05-30T13:56:31.762Z,17.10
2019-05-30T13:59:00.197Z,17.10
2019-05-30T14:01:28.632Z,17.20
2019-05-30T14:03:57.035Z,17.20
2019-05-30T14:06:25.472Z,17.20
2019-05-30T14:08:53.888Z,17.20
2019-05-30T14:11:22.389Z,17.20
2019-05-30T14:13:50.826Z,17.20
2019-05-30T14:16:19.260Z,17.30
2019-05-30T14:18:47.987Z,17.30
2019-05-30T14:21:16.437Z,17.30
2019-05-30T14:23:44.877Z,17.40
2019-05-30T14:26:13.289Z,17.40
2019-05-30T14:28:41.796Z,17.50
2019-05-30T14:31:11.982Z,17.50
2019-05-30T14:33:40.460Z,17.50
2019-05-30T14:36:12.561Z,17.50
2019-05-30T14:38:39.044Z,17.50
2019-05-30T14:41:07.477Z,17.50
2019-05-30T14:43:35.934Z,17.50
2019-05-30T14:46:04.422Z,17.50
2019-05-30T14:48:32.844Z,17.50
2019-05-30T14:51:01.239Z,17.50
2019-05-30T14:53:29.669Z,17.60
2019-05-30T14:55:58.104Z,17.60
2019-05-30T14:58:26.536Z,17.50
2019-05-30T15:00:54.977Z,17.50
2019-05-30T15:03:23.408Z,17.50
2019-05-30T15:05:52.045Z,17.50
2019-05-30T15:08:20.501Z,17.50
2019-05-30T15:10:48.910Z,17.50
2019-05-30T15:13:17.340Z,17.50
2019-05-30T15:15:45.766Z,17.50
2019-05-30T15:18:14.430Z,17.60
2019-05-30T15:20:42.852Z,17.60
2019-05-30T15:23:11.693Z,17.70
2019-05-30T15:25:40.428Z,17.70
2019-05-30T15:28:09.932Z,17.70
2019-05-30T15:30:38.452Z,17.70
2019-05-30T15:33:06.868Z,17.70
2019-05-30T15:35:35.296Z,17.70
2019-05-30T15:38:03.746Z,17.70
2019-05-30T15:40:32.140Z,17.70
2019-05-30T15:43:00.830Z,17.80
2019-05-30T15:45:29.277Z,17.90
2019-05-30T15:47:57.704Z,18.00
2019-05-30T15:50:26.210Z,18.10
2019-05-30T15:52:54.644Z,18.10
2019-05-30T15:55:23.398Z,18.20
2019-05-30T15:57:52.176Z,18.20
2019-05-30T16:00:21.372Z,18.30
2019-05-30T16:02:49.789Z,18.30
2019-05-30T16:05:18.712Z,18.40
2019-05-30T16:07:47.152Z,18.50
2019-05-30T16:10:16.865Z,18.60
2019-05-30T16:12:45.446Z,18.70
2019-05-30T16:15:15.441Z,18.70
2019-05-30T16:17:44.114Z,18.80
2019-05-30T16:20:13.873Z,18.80
2019-05-30T16:22:43.024Z,18.80
2019-05-30T16:25:11.674Z,18.90
2019-05-30T16:27:40.341Z,19.00
2019-05-30T16:30:10.486Z,19.00
2019-05-30T16:32:39.061Z,19.10
2019-05-30T16:35:08.517Z,19.00
2019-05-30T16:37:37.005Z,19.00
2019-05-30T16:40:09.196Z,19.00
2019-05-30T16:42:37.696Z,18.90
2019-05-30T16:45:09.535Z,18.80
2019-05-30T16:47:38.080Z,18.80
2019-05-30T16:50:09.149Z,18.70
2019-05-30T16:52:37.611Z,18.70
2019-05-30T16:55:07.396Z,18.60
2019-05-30T16:57:35.832Z,18.50
2019-05-30T17:00:07.354Z,18.50
2019-05-30T17:02:35.792Z,18.50
2019-05-30T17:05:06.342Z,18.50
2019-05-30T17:07:34.780Z,18.40
2019-05-30T17:10:20.908Z,18.40
2019-05-30T17:12:34.929Z,18.30
2019-05-30T17:15:04.903Z,18.30
2019-05-30T17:17:33.312Z,18.20
2019-05-30T17:20:01.757Z,18.20
2019-05-30T17:22:30.723Z,18.20
2019-05-30T17:24:59.181Z,18.20
2019-05-30T17:27:27.575Z,18.20
2019-05-30T17:29:56.034Z,18.10
2019-05-30T17:32:24.507Z,18.10
2019-05-30T17:34:53.957Z,18.10
2019-05-30T17:37:22.645Z,18.00
2019-05-30T17:39:51.073Z,18.00
2019-05-30T17:42:20.792Z,18.00
2019-05-30T17:44:49.315Z,18.00
2019-05-30T17:47:19.226Z,18.00
2019-05-30T17:49:47.727Z,17.90
2019-05-30T17:52:16.249Z,17.90
2019-05-30T17:54:44.696Z,17.90
2019-05-30T17:57:13.133Z,17.90
2019-05-30T17:59:41.589Z,17.90
2019-05-30T18:02:10.061Z,17.90
2019-05-30T18:04:38.489Z,17.90
2019-05-30T18:07:06.917Z,17.90
2019-05-30T18:09:35.437Z,17.80
2019-05-30T18:12:04.152Z,17.80
2019-05-30T18:14:32.564Z,17.80
2019-05-30T18:17:01.024Z,17.70
2019-05-30T18:19:29.489Z,17.70
2019-05-30T18:21:57.904Z,17.70
2019-05-30T18:24:27.627Z,17.70
2019-05-30T18:26:56.187Z,17.60
2019-05-30T18:29:25.939Z,17.60
2019-05-30T18:31:54.600Z,17.60
2019-05-30T18:34:24.102Z,17.50
2019-05-30T18:36:52.755Z,17.50
2019-05-30T18:39:22.345Z,17.50
2019-05-30T18:41:50.913Z,17.50
2019-05-30T18:44:20.352Z,17.50
2019-05-30T18:46:48.789Z,17.50
2019-05-30T18:49:17.196Z,17.50
2019-05-30T18:51:45.661Z,17.50
2019-05-30T18:54:14.118Z,17.50
2019-05-30T18:56:42.541Z,17.50
2019-05-30T18:59:10.964Z,17.50
2019-05-30T19:01:39.405Z,17.50
2019-05-30T19:04:07.818Z,17.50
2019-05-30T19:06:36.375Z,17.50
2019-05-30T19:09:06.712Z,17.50
2019-05-30T19:11:36.685Z,17.50
2019-05-30T19:14:05.757Z,17.40
2019-05-30T19:16:34.630Z,17.40
2019-05-30T19:19:03.289Z,17.40
2019-05-30T19:21:32.169Z,17.40
2019-05-30T19:24:00.812Z,17.40
2019-05-30T19:26:30.353Z,17.30
2019-05-30T19:28:58.820Z,17.30
2019-05-30T19:31:28.465Z,17.30
2019-05-30T19:33:56.981Z,17.30
2019-05-30T19:36:26.770Z,17.20
2019-05-30T19:38:55.226Z,17.20
2019-05-30T19:41:23.661Z,17.20
2019-05-30T19:43:52.090Z,17.10
2019-05-30T19:46:20.570Z,17.10
2019-05-30T19:48:48.980Z,17.10
2019-05-30T19:51:20.737Z,17.10
2019-05-30T19:53:47.530Z,17.10
2019-05-30T19:56:15.973Z,17.00
2019-05-30T19:58:44.453Z,17.00
2019-05-30T20:01:13.229Z,16.90
2019-05-30T20:03:46.732Z,16.80
2019-05-30T20:06:11.788Z,16.80
2019-05-30T20:08:53.341Z,16.80
2019-05-30T20:11:10.353Z,16.70
2019-05-30T20:13:39.207Z,16.70
2019-05-30T20:16:07.687Z,16.60
2019-05-30T20:18:36.150Z,16.60
2019-05-30T20:21:04.905Z,16.60
2019-05-30T20:23:47.556Z,16.50
2019-05-30T20:26:03.608Z,16.50
2019-05-30T20:28:32.708Z,16.50
2019-05-30T20:31:02.230Z,16.50
2019-05-30T20:33:30.758Z,16.40
2019-05-30T20:35:59.275Z,16.40
2019-05-30T20:38:27.733Z,16.50
2019-05-30T20:40:56.194Z,16.40
2019-05-30T20:43:24.736Z,16.40
2019-05-30T20:45:53.164Z,16.40
2019-05-30T20:48:21.843Z,16.40
2019-05-30T20:50:50.278Z,16.40
2019-05-30T20:53:20.549Z,16.30
2019-05-30T20:55:49.236Z,16.30
2019-05-30T20:58:17.669Z,16.30
2019-05-30T21:00:46.112Z,16.30
2019-05-30T21:03:14.837Z,16.30
2019-05-30T21:05:44.113Z,16.20
2019-05-30T21:08:13.384Z,16.20
2019-05-30T21:10:44.042Z,16.20
2019-05-30T21:13:12.717Z,16.20
2019-05-30T21:15:41.872Z,16.10
2019-05-30T21:18:10.565Z,16.10
2019-05-30T21:20:40.027Z,16.10
2019-05-30T21:23:08.528Z,16.10
2019-05-30T21:25:37.490Z,16.00
2019-05-30T21:28:06.399Z,16.00
2019-05-30T21:30:34.795Z,15.90
2019-05-30T21:33:03.345Z,15.90
2019-05-30T21:35:31.817Z,15.90
2019-05-30T21:38:00.261Z,15.80
2019-05-30T21:40:28.699Z,15.80
2019-05-30T21:43:05.790Z,15.80
2019-05-30T21:45:27.261Z,15.70
2019-05-30T21:47:55.749Z,15.70
2019-05-30T21:50:24.450Z,15.60
2019-05-30T21:52:52.928Z,15.60
2019-05-30T21:55:21.446Z,15.60
2019-05-30T21:57:50.148Z,15.60
2019-05-30T22:00:37.833Z,15.60
2019-05-30T22:03:06.244Z,15.60
2019-05-30T22:05:34.709Z,15.60
2019-05-30T22:08:03.143Z,15.60
2019-05-30T22:10:31.570Z,15.60
2019-05-30T22:13:09.287Z,15.60
2019-05-30T22:15:30.416Z,15.60
2019-05-30T22:17:59.172Z,15.60
2019-05-30T22:20:27.865Z,15.60
2019-05-30T22:22:56.252Z,15.60
2019-05-30T22:25:25.462Z,15.60
2019-05-30T22:27:53.870Z,15.60
2019-05-30T22:30:22.375Z,15.60
2019-05-30T22:32:50.826Z,15.50
2019-05-30T22:35:19.294Z,15.50
2019-05-30T22:37:48.887Z,15.40
2019-05-30T22:40:18.064Z,15.40
2019-05-30T22:42:46.464Z,15.40
2019-05-30T22:45:15.431Z,15.30
2019-05-30T22:47:44.220Z,15.30
2019-05-30T22:50:12.742Z,15.30
2019-05-30T22:52:41.256Z,15.30
2019-05-30T22:55:09.728Z,15.30
2019-05-30T22:57:38.167Z,15.40
2019-05-30T23:00:07.676Z,15.40
2019-05-30T23:02:36.126Z,15.40
2019-05-30T23:05:06.285Z,15.40
2019-05-30T23:07:34.716Z,15.50
2019-05-30T23:10:04.104Z,15.50
2019-05-30T23:12:32.541Z,15.50
2019-05-30T23:15:00.968Z,15.60
2019-05-30T23:17:29.406Z,15.60
2019-05-30T23:19:57.840Z,15.50
2019-05-30T23:22:26.288Z,15.60
2019-05-30T23:24:55.545Z,15.70
2019-05-30T23:27:24.143Z,15.70
2019-05-30T23:29:53.812Z,15.70
2019-05-30T23:32:22.618Z,15.70
2019-05-30T23:34:52.163Z,15.70
2019-05-30T23:37:20.737Z,15.70
2019-05-30T23:39:49.175Z,15.70
2019-05-30T23:42:17.628Z,15.70
2019-05-30T23:44:46.064Z,15.60
2019-05-30T23:47:14.489Z,15.60
2019-05-30T23:49:42.977Z,15.60
2019-05-30T23:52:11.392Z,15.60
2019-05-30T23:54:39.848Z,15.50
2019-05-30T23:57:08.260Z,15.60
2019-05-30T23:59:36.700Z,15.50
